Time;durP1;ratioP1;P1;durP2;ratioP2;P2;SDS_P1;SDS_P2;PMS_P1;PMS_P2;Temp;Humidity;BMP_temperature;BMP_pressure;BME280_temperature;BME280_humidity;BME280_pressure;Samples;Min_cycle;Max_cycle;Signal;HPM_P1;HPM_P2
2023/08/15 00:01:45;;;;;;;3.88;2.83;;;;;;;;;;6311658;22;20047;-91
2023/08/15 00:04:11;;;;;;;4.90;2.83;;;;;;;;;;6309548;22;20019;-91
2023/08/15 00:06:37;;;;;;;4.25;2.63;;;;;;;;;;6306638;22;20129;-91
2023/08/15 00:09:03;;;;;;;4.50;2.97;;;;;;;;;;6306754;22;20041;-91
2023/08/15 00:11:29;;;;;;;3.10;2.80;;;;;;;;;;6306366;22;20015;-91
2023/08/15 00:13:56;;;;;;;4.80;3.25;;;;;;;;;;6306063;22;20082;-91
2023/08/15 00:16:22;;;;;;;3.85;2.75;;;;;;;;;;6304362;22;20018;-91
2023/08/15 00:18:48;;;;;;;5.47;2.78;;;;;;;;;;6306401;22;20011;-91
2023/08/15 00:21:14;;;;;;;4.90;3.45;;;;;;;;;;6306079;22;20069;-91
2023/08/15 00:23:41;;;;;;;6.18;2.97;;;;;;;;;;6304865;22;20027;-91
2023/08/15 00:26:07;;;;;;;4.47;2.92;;;;;;;;;;6305212;22;20012;-92
2023/08/15 00:28:33;;;;;;;6.05;3.25;;;;;;;;;;6304132;22;20011;-91
2023/08/15 00:30:59;;;;;;;4.97;3.53;;;;;;;;;;6304796;22;20383;-91
2023/08/15 00:33:25;;;;;;;4.18;2.97;;;;;;;;;;6304739;22;20015;-91
2023/08/15 00:35:51;;;;;;;4.35;2.60;;;;;;;;;;6305741;22;20015;-90
2023/08/15 00:38:17;;;;;;;4.50;3.08;;;;;;;;;;6305736;22;20015;-91
2023/08/15 00:40:43;;;;;;;5.07;3.13;;;;;;;;;;6304001;22;20011;-91
2023/08/15 00:43:17;;;;;;;5.72;2.70;;;;;;;;;;6303653;22;20052;-91
2023/08/15 00:45:43;;;;;;;3.35;2.90;;;;;;;;;;6304021;22;20090;-90
2023/08/15 00:48:10;;;;;;;4.78;3.38;;;;;;;;;;6303474;22;20090;-91
2023/08/15 00:50:36;;;;;;;4.10;2.95;;;;;;;;;;6309176;22;20015;-91
2023/08/15 00:53:03;;;;;;;4.80;3.00;;;;;;;;;;6282598;22;20148;-91
2023/08/15 00:55:29;;;;;;;4.65;3.00;;;;;;;;;;6308099;22;20018;-90
2023/08/15 00:57:55;;;;;;;4.82;3.15;;;;;;;;;;6308790;22;20066;-91
2023/08/15 01:00:22;;;;;;;3.67;3.00;;;;;;;;;;6308783;22;20007;-90
2023/08/15 01:02:48;;;;;;;4.57;3.08;;;;;;;;;;6308024;22;20015;-90
2023/08/15 01:05:16;;;;;;;5.85;3.25;;;;;;;;;;6336942;22;20454;-91
2023/08/15 01:07:42;;;;;;;4.47;3.00;;;;;;;;;;6337299;22;20085;-91
2023/08/15 01:10:09;;;;;;;4.20;3.35;;;;;;;;;;6336045;22;20046;-91
2023/08/15 01:12:51;;;;;;;5.07;3.17;;;;;;;;;;6337356;22;20046;-91
2023/08/15 01:15:21;;;;;;;4.57;3.15;;;;;;;;;;6336775;22;20068;-91
2023/08/15 01:17:52;;;;;;;6.90;3.95;;;;;;;;;;6337562;22;20161;-90
2023/08/15 01:20:28;;;;;;;4.40;3.83;;;;;;;;;;6337058;22;20370;-91
2023/08/15 01:22:57;;;;;;;5.20;4.05;;;;;;;;;;6308309;22;20325;-91
2023/08/15 01:25:23;;;;;;;5.13;4.10;;;;;;;;;;6336451;22;20332;-91
2023/08/15 01:27:49;;;;;;;5.10;4.32;;;;;;;;;;6308334;22;20011;-91
2023/08/15 01:30:16;;;;;;;9.05;4.85;;;;;;;;;;6282381;22;20023;-92
2023/08/15 01:32:45;;;;;;;5.65;4.40;;;;;;;;;;6309103;22;20152;-90
2023/08/15 01:35:22;;;;;;;6.85;4.03;;;;;;;;;;6336004;22;20014;-90
2023/08/15 01:37:52;;;;;;;5.65;4.18;;;;;;;;;;6336483;22;20018;-91
2023/08/15 01:40:21;;;;;;;6.03;4.55;;;;;;;;;;6309598;22;20010;-90
2023/08/15 01:42:47;;;;;;;9.02;5.10;;;;;;;;;;6337247;22;20046;-91
2023/08/15 01:45:13;;;;;;;7.60;4.95;;;;;;;;;;6336576;22;20078;-91
2023/08/15 01:47:40;;;;;;;6.93;4.75;;;;;;;;;;6337751;22;20007;-90
2023/08/15 01:50:06;;;;;;;6.47;4.80;;;;;;;;;;6308614;22;20014;-91
2023/08/15 01:52:32;;;;;;;6.55;4.60;;;;;;;;;;6334994;22;20015;-90
2023/08/15 01:54:58;;;;;;;5.93;4.82;;;;;;;;;;6336104;22;20070;-91
2023/08/15 01:57:24;;;;;;;8.32;6.25;;;;;;;;;;6308636;22;20019;-90
2023/08/15 01:59:50;;;;;;;7.10;4.72;;;;;;;;;;6336980;22;20101;-91
2023/08/15 02:02:16;;;;;;;7.53;5.05;;;;;;;;;;6312945;22;20011;-90
2023/08/15 02:04:42;;;;;;;7.43;5.05;;;;;;;;;;6310488;22;20019;-90
2023/08/15 02:07:08;;;;;;;7.55;5.10;;;;;;;;;;6336133;22;20007;-90
2023/08/15 02:09:34;;;;;;;8.18;4.90;;;;;;;;;;6336084;22;20439;-89
2023/08/15 02:12:00;;;;;;;7.22;4.90;;;;;;;;;;6336260;22;20015;-91
2023/08/15 02:14:26;;;;;;;7.28;5.05;;;;;;;;;;6336746;22;20272;-90
2023/08/15 02:16:52;;;;;;;5.25;4.75;;;;;;;;;;6309088;22;20014;-90
2023/08/15 02:19:18;;;;;;;7.00;5.15;;;;;;;;;;6282871;22;20087;-90
2023/08/15 02:21:44;;;;;;;7.22;5.25;;;;;;;;;;6282039;22;20011;-90
2023/08/15 02:24:10;;;;;;;7.53;5.28;;;;;;;;;;6281853;22;20015;-90
2023/08/15 02:26:36;;;;;;;8.02;5.20;;;;;;;;;;6308385;22;20017;-90
2023/08/15 02:29:03;;;;;;;5.93;5.03;;;;;;;;;;6335804;22;20332;-91
2023/08/15 02:31:29;;;;;;;8.02;5.78;;;;;;;;;;6336146;22;20077;-91
2023/08/15 02:33:55;;;;;;;7.75;4.75;;;;;;;;;;6336354;22;20067;-91
2023/08/15 02:36:21;;;;;;;8.27;5.75;;;;;;;;;;6336578;22;20042;-90
2023/08/15 02:38:47;;;;;;;8.15;5.57;;;;;;;;;;6308993;22;20014;-91
2023/08/15 02:41:13;;;;;;;7.72;5.43;;;;;;;;;;6336181;22;20010;-91
2023/08/15 02:43:39;;;;;;;7.45;5.35;;;;;;;;;;6310556;22;20064;-90
2023/08/15 02:46:05;;;;;;;7.38;5.93;;;;;;;;;;6310614;22;20060;-90
2023/08/15 02:48:31;;;;;;;7.80;5.85;;;;;;;;;;6311031;22;20021;-91
2023/08/15 02:50:57;;;;;;;7.93;5.88;;;;;;;;;;6310357;22;20062;-91
2023/08/15 02:53:23;;;;;;;9.15;6.05;;;;;;;;;;6339058;22;20064;-91
2023/08/15 02:55:50;;;;;;;7.90;5.90;;;;;;;;;;6338787;22;20017;-91
2023/08/15 02:58:16;;;;;;;8.50;6.30;;;;;;;;;;6338578;22;20006;-90
2023/08/15 03:00:43;;;;;;;9.75;6.90;;;;;;;;;;6339267;22;20011;-90
2023/08/15 03:03:09;;;;;;;9.77;6.30;;;;;;;;;;6337354;22;20144;-90
2023/08/15 03:05:37;;;;;;;9.27;6.20;;;;;;;;;;6311284;22;20011;-91
2023/08/15 03:08:03;;;;;;;8.88;6.65;;;;;;;;;;6337669;22;20011;-90
2023/08/15 03:10:32;;;;;;;10.68;6.53;;;;;;;;;;6337848;22;20015;-91
2023/08/15 03:12:58;;;;;;;8.77;6.38;;;;;;;;;;6309933;22;20018;-91
2023/08/15 03:15:24;;;;;;;9.98;7.50;;;;;;;;;;6338107;22;20011;-90
2023/08/15 03:17:51;;;;;;;9.52;6.85;;;;;;;;;;6337368;22;20019;-90
2023/08/15 03:20:17;;;;;;;9.95;7.32;;;;;;;;;;6309484;22;20011;-91
2023/08/15 03:22:43;;;;;;;9.73;7.25;;;;;;;;;;6284564;22;20019;-90
2023/08/15 03:25:09;;;;;;;9.00;7.63;;;;;;;;;;6336779;22;20391;-91
2023/08/15 03:27:35;;;;;;;11.48;8.05;;;;;;;;;;6338619;22;20371;-90
2023/08/15 03:30:02;;;;;;;12.60;7.38;;;;;;;;;;6340237;22;20044;-90
2023/08/15 03:32:28;;;;;;;9.05;7.07;;;;;;;;;;6340552;22;20050;-90
2023/08/15 03:34:54;;;;;;;9.98;7.68;;;;;;;;;;6339605;22;20015;-91
2023/08/15 03:37:22;;;;;;;9.18;7.30;;;;;;;;;;6327098;22;20066;-91
2023/08/15 03:39:48;;;;;;;9.50;7.45;;;;;;;;;;6337911;22;20034;-90
2023/08/15 03:42:14;;;;;;;10.23;7.47;;;;;;;;;;6364310;22;20034;-91
2023/08/15 03:44:40;;;;;;;9.80;7.55;;;;;;;;;;6356937;22;20014;-91
2023/08/15 03:47:06;;;;;;;10.35;7.68;;;;;;;;;;6337888;22;20086;-91
2023/08/15 03:49:32;;;;;;;13.27;8.05;;;;;;;;;;6336398;22;20061;-91
2023/08/15 03:51:58;;;;;;;11.15;6.80;;;;;;;;;;6304573;22;20016;-91
2023/08/15 03:54:24;;;;;;;9.80;7.65;;;;;;;;;;6305875;22;20022;-91
2023/08/15 03:56:50;;;;;;;11.70;7.85;;;;;;;;;;6303875;22;20368;-91
2023/08/15 03:59:16;;;;;;;10.07;7.88;;;;;;;;;;6303698;22;20023;-91
2023/08/15 04:01:42;;;;;;;9.73;7.65;;;;;;;;;;6306300;22;20086;-90
2023/08/15 04:04:08;;;;;;;10.90;7.55;;;;;;;;;;6307173;22;20043;-91
2023/08/15 04:06:35;;;;;;;10.60;7.85;;;;;;;;;;6321855;22;20068;-91
2023/08/15 04:09:01;;;;;;;9.27;7.47;;;;;;;;;;6326611;22;20020;-89
2023/08/15 04:11:27;;;;;;;9.73;7.80;;;;;;;;;;6312219;22;20092;-91
2023/08/15 04:13:53;;;;;;;11.38;7.80;;;;;;;;;;6303809;22;20050;-91
2023/08/15 04:16:19;;;;;;;9.38;7.60;;;;;;;;;;6305805;22;20011;-91
2023/08/15 04:18:45;;;;;;;10.82;7.70;;;;;;;;;;6305306;22;20069;-91
2023/08/15 04:21:11;;;;;;;11.10;7.65;;;;;;;;;;6306675;22;20000;-92
2023/08/15 04:23:37;;;;;;;10.80;7.40;;;;;;;;;;6325284;22;20003;-91
2023/08/15 04:26:03;;;;;;;9.65;7.28;;;;;;;;;;6331536;22;20025;-92
2023/08/15 04:28:29;;;;;;;13.30;8.40;;;;;;;;;;6332964;22;20034;-91
2023/08/15 04:30:55;;;;;;;10.80;8.23;;;;;;;;;;6332147;22;19999;-92
2023/08/15 04:33:21;;;;;;;17.80;11.73;;;;;;;;;;6321713;22;20019;-85
2023/08/15 04:35:47;;;;;;;14.05;8.90;;;;;;;;;;6309407;22;20022;-84
2023/08/15 04:38:14;;;;;;;12.07;7.25;;;;;;;;;;6301194;22;20019;-86
2023/08/15 04:40:40;;;;;;;9.15;5.68;;;;;;;;;;6306590;22;20018;-89
2023/08/15 04:43:07;;;;;;;12.82;5.43;;;;;;;;;;6306194;22;20030;-90
2023/08/15 04:45:40;;;;;;;11.02;5.18;;;;;;;;;;6306824;22;20019;-91
2023/08/15 04:48:06;;;;;;;11.20;5.93;;;;;;;;;;6304355;22;20011;-89
2023/08/15 04:50:32;;;;;;;8.90;6.03;;;;;;;;;;6304796;22;20013;-88
2023/08/15 04:52:58;;;;;;;9.23;6.50;;;;;;;;;;6302894;22;20445;-86
2023/08/15 04:55:24;;;;;;;9.18;6.93;;;;;;;;;;6302622;22;20022;-86
2023/08/15 04:57:50;;;;;;;14.25;6.63;;;;;;;;;;6302722;22;20908;-87
2023/08/15 05:00:19;;;;;;;11.40;7.70;;;;;;;;;;6303305;22;20011;-86
2023/08/15 05:02:45;;;;;;;13.52;7.78;;;;;;;;;;6302702;22;20018;-86
2023/08/15 05:05:11;;;;;;;9.27;7.05;;;;;;;;;;6302815;22;20069;-86
2023/08/15 05:07:37;;;;;;;13.07;8.20;;;;;;;;;;6303281;22;20425;-88
2023/08/15 05:10:04;;;;;;;11.88;7.43;;;;;;;;;;6300801;22;20011;-87
2023/08/15 05:12:30;;;;;;;14.73;7.88;;;;;;;;;;6303988;22;20023;-88
2023/08/15 05:14:56;;;;;;;11.20;7.75;;;;;;;;;;6304777;22;20019;-87
2023/08/15 05:17:22;;;;;;;13.35;8.68;;;;;;;;;;6300822;22;20094;-87
2023/08/15 05:19:48;;;;;;;9.30;7.72;;;;;;;;;;6303006;22;20019;-87
2023/08/15 05:22:14;;;;;;;12.10;7.80;;;;;;;;;;6302198;22;20011;-88
2023/08/15 05:24:40;;;;;;;13.15;7.60;;;;;;;;;;6305410;22;20129;-89
2023/08/15 05:27:06;;;;;;;11.77;7.47;;;;;;;;;;6305721;22;20007;-90
2023/08/15 05:29:32;;;;;;;9.52;6.80;;;;;;;;;;6305124;22;20047;-90
2023/08/15 05:31:58;;;;;;;10.23;7.35;;;;;;;;;;6304909;22;20022;-88
2023/08/15 05:34:24;;;;;;;9.73;7.38;;;;;;;;;;6302544;22;20019;-88
2023/08/15 05:36:50;;;;;;;9.65;6.97;;;;;;;;;;6305088;22;20022;-88
2023/08/15 05:39:16;;;;;;;11.45;6.75;;;;;;;;;;6305219;22;20047;-88
2023/08/15 05:41:42;;;;;;;12.63;6.78;;;;;;;;;;6305838;22;20011;-89
2023/08/15 05:44:08;;;;;;;10.07;6.78;;;;;;;;;;6304220;22;20016;-87
2023/08/15 05:46:34;;;;;;;9.23;6.82;;;;;;;;;;6302300;22;20019;-88
2023/08/15 05:49:00;;;;;;;10.02;6.70;;;;;;;;;;6303070;22;20011;-90
2023/08/15 05:51:26;;;;;;;8.68;5.53;;;;;;;;;;6305038;22;20027;-91
2023/08/15 05:53:52;;;;;;;7.68;5.63;;;;;;;;;;6303993;22;20011;-88
2023/08/15 05:56:18;;;;;;;10.32;6.70;;;;;;;;;;6303585;22;20375;-92
2023/08/15 05:58:44;;;;;;;8.10;6.18;;;;;;;;;;6305795;22;20011;-92
2023/08/15 06:01:10;;;;;;;7.65;5.00;;;;;;;;;;6306639;22;20098;-92
2023/08/15 06:03:36;;;;;;;7.28;4.88;;;;;;;;;;6307827;22;20012;-92
2023/08/15 06:06:02;;;;;;;6.38;4.78;;;;;;;;;;6306419;22;20086;-94
2023/08/15 06:08:28;;;;;;;8.15;4.88;;;;;;;;;;6313908;22;20069;-96
2023/08/15 06:10:54;;;;;;;7.70;5.43;;;;;;;;;;6312746;22;20045;-91
2023/08/15 06:13:20;;;;;;;7.68;4.55;;;;;;;;;;6310897;22;20023;-95
2023/08/15 06:15:46;;;;;;;7.30;5.07;;;;;;;;;;6316171;22;20024;-96
2023/08/15 06:18:12;;;;;;;8.10;5.45;;;;;;;;;;6317603;22;20034;-96
2023/08/15 06:20:39;;;;;;;7.35;4.75;;;;;;;;;;6317451;22;20015;-95
2023/08/15 06:23:05;;;;;;;9.05;4.93;;;;;;;;;;6316139;22;20090;-96
2023/08/15 06:25:31;;;;;;;6.55;4.50;;;;;;;;;;6323391;22;19995;-96
2023/08/15 08:04:32;;;;;;;7.32;4.18;;;;;;;;;;6368452;22;20462;-90
2023/08/15 08:06:58;;;;;;;5.78;3.95;;;;;;;;;;6313599;22;20018;-93
2023/08/15 08:09:24;;;;;;;6.28;3.55;;;;;;;;;;6340905;22;20010;-89
2023/08/15 08:11:52;;;;;;;6.90;3.55;;;;;;;;;;6368690;22;20029;-88
2023/08/15 08:14:18;;;;;;;5.97;3.70;;;;;;;;;;6340101;22;20011;-90
2023/08/15 08:16:44;;;;;;;8.90;4.20;;;;;;;;;;6368985;22;20015;-89
2023/08/15 08:19:10;;;;;;;7.07;3.38;;;;;;;;;;6369301;22;20014;-89
2023/08/15 08:21:36;;;;;;;4.30;3.25;;;;;;;;;;6340938;22;20389;-91
2023/08/15 08:24:03;;;;;;;5.03;3.70;;;;;;;;;;6342974;22;20343;-91
2023/08/15 08:26:29;;;;;;;5.00;3.75;;;;;;;;;;6340739;22;20019;-89
2023/08/15 08:28:55;;;;;;;6.30;4.07;;;;;;;;;;6368069;22;20461;-90
2023/08/15 08:31:21;;;;;;;6.80;3.67;;;;;;;;;;6340564;22;20011;-87
2023/08/15 08:33:48;;;;;;;6.10;4.10;;;;;;;;;;6339540;22;20631;-89
2023/08/15 08:36:14;;;;;;;5.88;4.18;;;;;;;;;;6365975;22;20097;-89
2023/08/15 08:38:40;;;;;;;5.13;4.70;;;;;;;;;;6368112;22;20014;-87
2023/08/15 08:41:07;;;;;;;5.22;4.55;;;;;;;;;;6367556;22;20018;-89
2023/08/15 08:43:33;;;;;;;8.05;5.35;;;;;;;;;;6368415;22;20056;-88
2023/08/15 08:46:00;;;;;;;9.40;4.85;;;;;;;;;;6314319;22;20470;-89
2023/08/15 08:48:26;;;;;;;8.25;5.45;;;;;;;;;;6339853;22;20014;-90
2023/08/15 08:50:55;;;;;;;7.80;4.68;;;;;;;;;;6369124;22;20331;-90
2023/08/15 08:53:21;;;;;;;7.28;5.30;;;;;;;;;;6339188;22;20101;-89
2023/08/15 08:55:48;;;;;;;8.00;5.68;;;;;;;;;;6371946;22;20025;-90
2023/08/15 08:58:14;;;;;;;5.90;5.15;;;;;;;;;;6372102;22;20049;-91
2023/08/15 09:00:41;;;;;;;5.93;4.68;;;;;;;;;;6372036;22;20019;-92
2023/08/15 09:03:08;;;;;;;6.20;4.72;;;;;;;;;;6377498;22;20014;-89
2023/08/15 09:05:34;;;;;;;7.07;4.65;;;;;;;;;;6367680;22;20040;-88
2023/08/15 09:08:01;;;;;;;8.05;4.70;;;;;;;;;;6367354;22;20009;-90
2023/08/15 09:10:28;;;;;;;7.10;4.68;;;;;;;;;;6393456;22;20094;-91
2023/08/15 09:12:57;;;;;;;8.63;4.40;;;;;;;;;;6349187;22;20011;-89
2023/08/15 09:15:23;;;;;;;7.90;4.40;;;;;;;;;;6340040;22;20308;-88
2023/08/15 09:17:49;;;;;;;7.38;4.40;;;;;;;;;;6368752;22;20067;-91
2023/08/15 09:20:18;;;;;;;5.10;4.07;;;;;;;;;;6368377;22;20327;-91
2023/08/15 09:22:47;;;;;;;7.25;4.15;;;;;;;;;;6367868;22;20010;-92
2023/08/15 09:25:17;;;;;;;6.85;4.10;;;;;;;;;;6313504;22;20019;-88
2023/08/15 09:27:44;;;;;;;9.95;3.58;;;;;;;;;;6367889;22;20038;-90
2023/08/15 09:30:14;;;;;;;7.30;3.50;;;;;;;;;;6367021;22;20016;-90
2023/08/15 09:32:40;;;;;;;5.25;3.72;;;;;;;;;;6340540;22;20474;-91
2023/08/15 09:35:09;;;;;;;3.60;3.20;;;;;;;;;;6367954;22;20052;-91
2023/08/15 09:37:35;;;;;;;4.82;3.72;;;;;;;;;;6367528;22;20014;-88
2023/08/15 09:40:01;;;;;;;4.28;2.90;;;;;;;;;;6340345;22;20045;-91
2023/08/15 09:42:28;;;;;;;5.80;3.40;;;;;;;;;;6367660;22;20312;-88
2023/08/15 09:44:55;;;;;;;3.58;3.03;;;;;;;;;;6367013;22;20015;-90
2023/08/15 09:47:21;;;;;;;4.22;3.33;;;;;;;;;;6339831;22;20087;-90
2023/08/15 09:49:52;;;;;;;5.53;3.10;;;;;;;;;;6368306;22;20021;-90
2023/08/15 09:52:19;;;;;;;5.40;3.15;;;;;;;;;;6368973;22;20081;-92
2023/08/15 09:54:46;;;;;;;4.25;2.58;;;;;;;;;;6370476;22;20014;-90
2023/08/15 09:57:12;;;;;;;2.78;2.53;;;;;;;;;;6369632;22;20014;-91
2023/08/15 09:59:38;;;;;;;6.88;2.90;;;;;;;;;;6374122;22;20007;-89
2023/08/15 10:02:05;;;;;;;4.22;2.35;;;;;;;;;;6371366;22;20010;-91
2023/08/15 10:04:32;;;;;;;2.72;2.03;;;;;;;;;;6370170;22;20049;-90
2023/08/15 10:06:58;;;;;;;4.22;1.98;;;;;;;;;;6370277;22;20006;-89
2023/08/15 10:09:26;;;;;;;6.75;2.03;;;;;;;;;;6371499;22;20054;-92
2023/08/15 10:11:52;;;;;;;4.20;1.58;;;;;;;;;;6370384;22;20011;-89
2023/08/15 10:14:19;;;;;;;6.07;1.88;;;;;;;;;;6369901;22;20363;-88
2023/08/15 10:16:46;;;;;;;3.92;1.85;;;;;;;;;;6341669;22;20493;-89
2023/08/15 10:19:18;;;;;;;2.35;1.80;;;;;;;;;;6340671;22;20006;-89
2023/08/15 10:21:51;;;;;;;3.22;1.98;;;;;;;;;;6340764;22;20010;-89
2023/08/15 10:24:17;;;;;;;3.67;1.33;;;;;;;;;;6369856;22;20380;-91
2023/08/15 10:26:43;;;;;;;2.42;1.30;;;;;;;;;;6341635;22;20045;-90
2023/08/15 10:29:09;;;;;;;1.88;1.13;;;;;;;;;;6369266;22;20019;-90
2023/08/15 10:31:36;;;;;;;2.78;1.50;;;;;;;;;;6347436;22;20081;-91
2023/08/15 10:34:03;;;;;;;2.20;1.50;;;;;;;;;;6354241;22;20016;-90
2023/08/15 10:36:30;;;;;;;3.15;1.33;;;;;;;;;;6357055;22;20107;-93
2023/08/15 10:38:56;;;;;;;3.25;1.90;;;;;;;;;;6386581;22;20029;-89
2023/08/15 10:41:22;;;;;;;3.72;1.50;;;;;;;;;;6391220;22;20010;-90
2023/08/15 10:43:49;;;;;;;4.50;1.83;;;;;;;;;;6347998;22;20046;-89
2023/08/15 10:46:24;;;;;;;7.32;1.95;;;;;;;;;;6317058;22;20022;-91
2023/08/15 10:48:51;;;;;;;6.53;3.03;;;;;;;;;;6343295;22;20056;-93
2023/08/15 10:51:17;;;;;;;3.92;1.38;;;;;;;;;;6372416;22;20020;-90
2023/08/15 10:53:43;;;;;;;3.70;1.88;;;;;;;;;;6342218;22;20098;-89
2023/08/15 10:56:10;;;;;;;2.95;1.48;;;;;;;;;;6369295;22;20014;-90
2023/08/15 10:58:37;;;;;;;2.08;1.60;;;;;;;;;;6370185;22;20435;-94
2023/08/15 11:01:04;;;;;;;3.70;1.58;;;;;;;;;;6315558;22;20014;-92
2023/08/15 11:03:31;;;;;;;4.18;1.75;;;;;;;;;;6340259;22;20028;-91
2023/08/15 11:06:07;;;;;;;3.17;1.58;;;;;;;;;;6314600;22;20464;-91
2023/08/15 11:08:33;;;;;;;5.75;1.80;;;;;;;;;;6316847;22;20014;-91
2023/08/15 11:10:59;;;;;;;2.90;1.42;;;;;;;;;;6341133;22;20451;-91
2023/08/15 11:13:25;;;;;;;2.75;1.52;;;;;;;;;;6342722;22;20340;-90
2023/08/15 11:15:51;;;;;;;3.03;1.95;;;;;;;;;;6371398;22;20014;-91
2023/08/15 11:18:21;;;;;;;4.85;2.00;;;;;;;;;;6341639;22;20447;-90
2023/08/15 11:20:48;;;;;;;5.35;2.05;;;;;;;;;;6370713;22;20017;-90
2023/08/15 11:23:15;;;;;;;5.55;1.85;;;;;;;;;;6368444;22;20029;-90
2023/08/15 11:25:41;;;;;;;2.17;1.55;;;;;;;;;;6342183;22;20006;-91
2023/08/15 11:28:07;;;;;;;4.28;1.80;;;;;;;;;;6370456;22;20026;-90
2023/08/15 11:30:34;;;;;;;7.63;2.55;;;;;;;;;;6316364;22;20021;-91
2023/08/15 11:33:01;;;;;;;4.82;1.73;;;;;;;;;;6315560;22;20018;-94
2023/08/15 11:35:27;;;;;;;2.40;1.50;;;;;;;;;;6342522;22;20014;-93
2023/08/15 11:37:53;;;;;;;3.40;1.88;;;;;;;;;;6343249;22;20499;-91
2023/08/15 11:40:19;;;;;;;3.60;2.10;;;;;;;;;;6364470;22;20030;-91
2023/08/15 11:42:45;;;;;;;3.22;1.95;;;;;;;;;;6394595;22;20022;-89
2023/08/15 11:45:18;;;;;;;4.65;2.22;;;;;;;;;;6341356;22;20062;-93
2023/08/15 11:47:57;;;;;;;3.63;1.73;;;;;;;;;;6339639;22;20026;-92
2023/08/15 11:50:24;;;;;;;2.72;1.60;;;;;;;;;;6373398;22;20045;-93
2023/08/15 11:52:50;;;;;;;5.30;1.92;;;;;;;;;;6344107;22;20020;-88
2023/08/15 11:55:18;;;;;;;4.47;2.00;;;;;;;;;;6342160;22;20066;-88
2023/08/15 11:57:44;;;;;;;2.33;1.80;;;;;;;;;;6320039;22;20021;-94
2023/08/15 12:00:14;;;;;;;2.78;1.63;;;;;;;;;;6335794;22;20029;-95
2023/08/15 12:02:44;;;;;;;2.03;1.83;;;;;;;;;;6320732;22;20026;-90
2023/08/15 12:05:14;;;;;;;6.25;2.08;;;;;;;;;;6321125;22;20083;-89
2023/08/15 12:07:40;;;;;;;1.42;1.30;;;;;;;;;;6315463;22;20014;-90
2023/08/15 12:10:06;;;;;;;2.38;1.50;;;;;;;;;;6338872;22;20018;-92
2023/08/15 12:12:40;;;;;;;3.55;1.85;;;;;;;;;;6314521;22;20010;-90
2023/08/15 12:15:07;;;;;;;4.50;1.73;;;;;;;;;;6340975;22;20006;-90
2023/08/15 12:17:33;;;;;;;3.58;1.70;;;;;;;;;;6340980;22;20014;-93
2023/08/15 12:19:59;;;;;;;4.32;1.90;;;;;;;;;;6313750;22;20331;-90
2023/08/15 12:22:26;;;;;;;2.80;1.70;;;;;;;;;;6317632;22;20086;-92
2023/08/15 12:24:52;;;;;;;3.40;1.90;;;;;;;;;;6345224;22;20106;-92
2023/08/15 12:27:18;;;;;;;4.75;2.28;;;;;;;;;;6369947;22;20063;-90
2023/08/15 12:29:44;;;;;;;5.22;2.22;;;;;;;;;;6340271;22;20053;-91
2023/08/15 12:32:10;;;;;;;2.70;1.95;;;;;;;;;;6339378;22;20022;-89
2023/08/15 12:34:36;;;;;;;2.83;1.85;;;;;;;;;;6340959;22;20014;-93
2023/08/15 12:37:02;;;;;;;5.05;2.22;;;;;;;;;;6369005;22;20025;-94
2023/08/15 12:39:28;;;;;;;3.78;2.30;;;;;;;;;;6342398;22;20015;-91
2023/08/15 12:41:54;;;;;;;3.28;2.65;;;;;;;;;;6314878;22;20037;-89
2023/08/15 12:44:20;;;;;;;5.70;2.58;;;;;;;;;;6346184;22;20014;-93
2023/08/15 12:46:46;;;;;;;5.60;2.50;;;;;;;;;;6348785;22;20014;-92
2023/08/15 12:49:12;;;;;;;3.25;2.20;;;;;;;;;;6343142;22;20061;-92
2023/08/15 12:51:40;;;;;;;4.40;2.13;;;;;;;;;;6343699;22;20025;-92
2023/08/15 12:54:10;;;;;;;3.47;2.13;;;;;;;;;;6351288;22;20042;-95
2023/08/15 12:56:43;;;;;;;3.72;2.25;;;;;;;;;;6326994;22;20022;-96
2023/08/15 12:59:18;;;;;;;6.60;2.67;;;;;;;;;;6386820;22;20025;-93
2023/08/15 13:01:47;;;;;;;5.82;2.42;;;;;;;;;;6384191;22;20110;-96
2023/08/15 13:04:14;;;;;;;4.63;2.60;;;;;;;;;;6348795;22;20010;-87
2023/08/15 13:06:41;;;;;;;5.25;2.42;;;;;;;;;;6356610;22;20102;-96
2023/08/15 13:09:07;;;;;;;3.50;2.28;;;;;;;;;;6322033;22;20452;-94
2023/08/15 13:11:36;;;;;;;4.10;2.40;;;;;;;;;;6338189;22;20025;-96
2023/08/15 13:14:05;;;;;;;4.00;2.53;;;;;;;;;;6295654;22;20019;-92
2023/08/15 13:16:34;;;;;;;4.22;2.50;;;;;;;;;;6320003;22;20029;-96
2023/08/15 13:19:00;;;;;;;5.15;3.10;;;;;;;;;;6352036;22;20015;-90
2023/08/15 13:21:29;;;;;;;3.25;2.95;;;;;;;;;;6349156;22;20014;-94
2023/08/15 13:23:56;;;;;;;5.88;2.95;;;;;;;;;;6315908;22;20124;-93
2023/08/15 13:26:22;;;;;;;5.00;2.75;;;;;;;;;;6313349;22;20025;-93
2023/08/15 13:28:48;;;;;;;7.82;3.00;;;;;;;;;;6309133;22;20023;-90
2023/08/15 13:31:15;;;;;;;3.13;2.63;;;;;;;;;;6309719;22;20019;-90
2023/08/15 13:33:44;;;;;;;5.22;2.78;;;;;;;;;;6339578;22;20367;-93
2023/08/15 13:36:11;;;;;;;5.75;3.03;;;;;;;;;;6311454;22;20014;-86
2023/08/15 13:38:37;;;;;;;3.53;3.08;;;;;;;;;;6308322;22;20053;-89
2023/08/15 13:41:04;;;;;;;3.85;2.67;;;;;;;;;;6308260;22;20395;-89
2023/08/15 13:43:33;;;;;;;3.50;2.60;;;;;;;;;;6281102;22;20042;-86
2023/08/15 13:46:08;;;;;;;3.50;2.55;;;;;;;;;;6281347;22;20021;-87
2023/08/15 13:48:34;;;;;;;4.72;2.60;;;;;;;;;;6282377;22;20335;-86
2023/08/15 13:51:02;;;;;;;5.88;2.78;;;;;;;;;;6333678;22;20015;-90
2023/08/15 13:53:29;;;;;;;5.93;3.03;;;;;;;;;;6307730;22;20014;-88
2023/08/15 13:55:56;;;;;;;5.88;2.67;;;;;;;;;;6306366;22;20042;-87
2023/08/15 13:58:23;;;;;;;3.63;2.60;;;;;;;;;;6280870;22;20370;-88
2023/08/15 14:00:49;;;;;;;4.15;2.38;;;;;;;;;;6308206;22;20352;-86
2023/08/15 14:03:15;;;;;;;3.30;2.42;;;;;;;;;;6308799;22;20015;-86
2023/08/15 14:05:41;;;;;;;3.15;2.15;;;;;;;;;;6308514;22;20011;-85
2023/08/15 14:08:07;;;;;;;3.25;2.13;;;;;;;;;;6335501;22;20015;-87
2023/08/15 14:10:35;;;;;;;3.72;2.03;;;;;;;;;;6306771;22;20011;-87
2023/08/15 14:13:01;;;;;;;2.70;2.22;;;;;;;;;;6276121;22;20336;-85
2023/08/15 14:15:29;;;;;;;3.25;2.25;;;;;;;;;;6302523;22;20023;-90
2023/08/15 14:17:55;;;;;;;2.40;2.03;;;;;;;;;;6303174;22;20138;-87
2023/08/15 14:20:21;;;;;;;3.63;2.55;;;;;;;;;;6304835;22;20024;-86
2023/08/15 14:22:47;;;;;;;2.95;2.00;;;;;;;;;;6303606;22;20015;-85
2023/08/15 14:25:14;;;;;;;3.22;2.05;;;;;;;;;;6276975;22;20011;-85
2023/08/15 14:27:40;;;;;;;2.15;1.95;;;;;;;;;;6304358;22;20082;-85
2023/08/15 14:30:06;;;;;;;1.90;1.42;;;;;;;;;;6302532;22;20014;-85
2023/08/15 14:32:32;;;;;;;3.67;1.30;;;;;;;;;;6302545;22;20015;-86
2023/08/15 14:34:58;;;;;;;1.63;1.30;;;;;;;;;;6306969;22;20061;-86
2023/08/15 14:37:25;;;;;;;2.15;1.10;;;;;;;;;;6310067;22;20061;-87
2023/08/15 14:39:51;;;;;;;1.98;1.00;;;;;;;;;;6311086;22;20015;-87
2023/08/15 14:42:17;;;;;;;0.75;0.70;;;;;;;;;;6320650;22;20015;-86
2023/08/15 14:44:43;;;;;;;1.25;0.73;;;;;;;;;;6318780;22;20092;-87
2023/08/15 14:47:09;;;;;;;1.58;1.13;;;;;;;;;;6294100;22;20074;-88
2023/08/15 14:49:35;;;;;;;2.10;1.27;;;;;;;;;;6313944;22;20015;-87
2023/08/15 14:52:03;;;;;;;2.30;1.10;;;;;;;;;;6309020;22;20018;-87
2023/08/15 14:54:29;;;;;;;1.95;1.15;;;;;;;;;;6304286;22;20019;-86
2023/08/15 14:56:55;;;;;;;1.67;1.30;;;;;;;;;;6303285;22;20015;-85
2023/08/15 14:59:21;;;;;;;4.40;1.77;;;;;;;;;;6305701;22;20015;-86
2023/08/15 15:01:47;;;;;;;2.10;1.63;;;;;;;;;;6304794;22;20015;-87
2023/08/15 15:04:13;;;;;;;1.55;1.45;;;;;;;;;;6277092;22;20019;-88
2023/08/15 15:06:39;;;;;;;1.55;1.45;;;;;;;;;;6278689;22;20011;-87
2023/08/15 15:09:05;;;;;;;1.45;1.23;;;;;;;;;;6303811;22;20027;-90
2023/08/15 15:11:31;;;;;;;2.67;1.52;;;;;;;;;;6303597;22;20047;-88
2023/08/15 15:13:57;;;;;;;3.30;1.35;;;;;;;;;;6303192;22;20449;-86
2023/08/15 15:16:24;;;;;;;3.03;1.20;;;;;;;;;;6302975;22;20069;-86
2023/08/15 15:18:50;;;;;;;2.83;1.17;;;;;;;;;;6302745;22;20017;-87
2023/08/15 15:21:16;;;;;;;2.08;1.17;;;;;;;;;;6303837;22;20015;-90
2023/08/15 15:23:42;;;;;;;2.55;1.13;;;;;;;;;;6305293;22;20051;-91
2023/08/15 15:26:08;;;;;;;3.70;1.52;;;;;;;;;;6303722;22;20114;-89
2023/08/15 15:28:34;;;;;;;2.03;1.08;;;;;;;;;;6304791;22;20054;-89
2023/08/15 15:31:00;;;;;;;2.30;1.13;;;;;;;;;;6304600;22;20018;-90
2023/08/15 15:33:29;;;;;;;4.45;1.67;;;;;;;;;;6304517;22;20379;-92
2023/08/15 15:35:55;;;;;;;2.83;1.45;;;;;;;;;;6278476;22;20047;-89
2023/08/15 15:38:21;;;;;;;3.90;1.70;;;;;;;;;;6306371;22;20065;-89
2023/08/15 15:40:47;;;;;;;3.30;1.33;;;;;;;;;;6278586;22;20019;-89
2023/08/15 15:43:13;;;;;;;3.70;1.58;;;;;;;;;;6303609;22;20022;-93
2023/08/15 15:45:39;;;;;;;6.38;1.35;;;;;;;;;;6278121;22;20011;-91
2023/08/15 15:48:05;;;;;;;3.60;1.63;;;;;;;;;;6303543;22;20035;-89
2023/08/15 15:50:33;;;;;;;1.70;1.60;;;;;;;;;;6305513;22;20013;-92
2023/08/15 15:53:00;;;;;;;2.63;1.80;;;;;;;;;;6304884;22;20019;-92
2023/08/15 15:55:27;;;;;;;2.90;1.67;;;;;;;;;;6276852;22;20015;-93
2023/08/15 15:57:53;;;;;;;3.28;1.60;;;;;;;;;;6305029;22;20019;-91
2023/08/15 16:00:20;;;;;;;3.20;2.00;;;;;;;;;;6304578;22;20022;-94
2023/08/15 16:02:47;;;;;;;3.58;1.30;;;;;;;;;;6310556;22;20015;-93
2023/08/15 16:05:13;;;;;;;2.90;1.50;;;;;;;;;;6286966;22;20070;-94
2023/08/15 16:07:39;;;;;;;2.83;1.27;;;;;;;;;;6298161;22;20023;-93
2023/08/15 16:10:06;;;;;;;2.25;1.20;;;;;;;;;;6327654;22;20051;-92
2023/08/15 16:12:32;;;;;;;2.95;1.40;;;;;;;;;;6317288;22;20015;-90
2023/08/15 16:14:59;;;;;;;2.03;1.30;;;;;;;;;;6323935;22;20015;-92